sensor_id;sensor_type;location;lat;lon;timestamp;P1;durP1;ratioP1;P2;durP2;ratioP2
62535;SDS011;63050;47.514;18.920;2024-01-07T00:03:30;15.70;;;11.10;;
62535;SDS011;63050;47.514;18.920;2024-01-07T00:08:31;14.10;;;10.70;;
62535;SDS011;63050;47.514;18.920;2024-01-07T00:13:33;14.50;;;10.40;;
62535;SDS011;63050;47.514;18.920;2024-01-07T00:18:35;15.20;;;11.50;;
62535;SDS011;63050;47.514;18.920;2024-01-07T00:23:37;12.80;;;10.20;;
62535;SDS011;63050;47.514;18.920;2024-01-07T00:28:38;14.30;;;10.60;;
62535;SDS011;63050;47.514;18.920;2024-01-07T00:33:40;12.70;;;9.40;;
62535;SDS011;63050;47.514;18.920;2024-01-07T00:39:06;13.40;;;9.70;;
62535;SDS011;63050;47.514;18.920;2024-01-07T00:44:08;12.50;;;9.80;;
62535;SDS011;63050;47.514;18.920;2024-01-07T00:49:11;11.40;;;9.20;;
62535;SDS011;63050;47.514;18.920;2024-01-07T00:54:37;10.30;;;7.90;;
62535;SDS011;63050;47.514;18.920;2024-01-07T00:59:39;12.60;;;9.20;;
62535;SDS011;63050;47.514;18.920;2024-01-07T01:04:41;12.60;;;9.10;;
62535;SDS011;63050;47.514;18.920;2024-01-07T01:09:42;11.40;;;8.90;;
62535;SDS011;63050;47.514;18.920;2024-01-07T01:14:44;11.00;;;8.20;;
62535;SDS011;63050;47.514;18.920;2024-01-07T01:19:45;9.20;;;8.00;;
62535;SDS011;63050;47.514;18.920;2024-01-07T01:24:46;10.90;;;8.30;;
62535;SDS011;63050;47.514;18.920;2024-01-07T01:29:49;9.00;;;7.60;;
62535;SDS011;63050;47.514;18.920;2024-01-07T01:34:51;10.00;;;7.60;;
62535;SDS011;63050;47.514;18.920;2024-01-07T01:39:53;11.60;;;8.40;;
62535;SDS011;63050;47.514;18.920;2024-01-07T01:44:55;9.70;;;8.10;;
62535;SDS011;63050;47.514;18.920;2024-01-07T01:50:01;10.80;;;7.60;;
62535;SDS011;63050;47.514;18.920;2024-01-07T01:55:04;9.40;;;7.70;;
62535;SDS011;63050;47.514;18.920;2024-01-07T02:00:06;7.60;;;6.40;;
62535;SDS011;63050;47.514;18.920;2024-01-07T02:05:09;7.90;;;6.00;;
62535;SDS011;63050;47.514;18.920;2024-01-07T02:10:11;6.90;;;5.40;;
62535;SDS011;63050;47.514;18.920;2024-01-07T02:15:14;5.90;;;4.50;;
62535;SDS011;63050;47.514;18.920;2024-01-07T02:20:16;6.00;;;4.50;;
62535;SDS011;63050;47.514;18.920;2024-01-07T02:25:17;4.70;;;3.90;;
62535;SDS011;63050;47.514;18.920;2024-01-07T02:30:19;5.20;;;4.00;;
62535;SDS011;63050;47.514;18.920;2024-01-07T02:35:21;5.30;;;3.10;;
62535;SDS011;63050;47.514;18.920;2024-01-07T02:40:22;4.50;;;2.90;;
62535;SDS011;63050;47.514;18.920;2024-01-07T02:45:24;4.40;;;3.60;;
62535;SDS011;63050;47.514;18.920;2024-01-07T02:50:26;4.50;;;3.90;;
62535;SDS011;63050;47.514;18.920;2024-01-07T02:55:28;4.50;;;4.00;;
62535;SDS011;63050;47.514;18.920;2024-01-07T03:00:30;4.60;;;3.80;;
62535;SDS011;63050;47.514;18.920;2024-01-07T03:05:31;4.70;;;4.20;;
62535;SDS011;63050;47.514;18.920;2024-01-07T03:10:33;6.30;;;5.00;;
62535;SDS011;63050;47.514;18.920;2024-01-07T03:15:35;5.50;;;4.90;;
62535;SDS011;63050;47.514;18.920;2024-01-07T03:20:37;5.90;;;4.10;;
62535;SDS011;63050;47.514;18.920;2024-01-07T03:25:38;4.80;;;3.90;;
62535;SDS011;63050;47.514;18.920;2024-01-07T03:30:40;5.90;;;4.40;;
62535;SDS011;63050;47.514;18.920;2024-01-07T03:35:42;5.10;;;4.00;;
62535;SDS011;63050;47.514;18.920;2024-01-07T03:40:44;5.10;;;3.70;;
62535;SDS011;63050;47.514;18.920;2024-01-07T03:45:47;4.90;;;3.50;;
62535;SDS011;63050;47.514;18.920;2024-01-07T03:50:51;4.10;;;3.30;;
62535;SDS011;63050;47.514;18.920;2024-01-07T03:55:54;4.10;;;3.30;;
62535;SDS011;63050;47.514;18.920;2024-01-07T04:00:55;3.50;;;2.90;;
62535;SDS011;63050;47.514;18.920;2024-01-07T04:05:57;3.30;;;2.40;;
62535;SDS011;63050;47.514;18.920;2024-01-07T04:10:58;3.50;;;2.80;;
62535;SDS011;63050;47.514;18.920;2024-01-07T04:16:02;3.40;;;2.70;;
62535;SDS011;63050;47.514;18.920;2024-01-07T04:21:05;3.40;;;2.70;;
62535;SDS011;63050;47.514;18.920;2024-01-07T04:26:10;3.60;;;2.70;;
62535;SDS011;63050;47.514;18.920;2024-01-07T04:31:11;4.70;;;2.30;;
62535;SDS011;63050;47.514;18.920;2024-01-07T04:36:13;3.20;;;2.10;;
62535;SDS011;63050;47.514;18.920;2024-01-07T04:41:14;3.30;;;2.30;;
62535;SDS011;63050;47.514;18.920;2024-01-07T04:46:15;2.50;;;1.90;;
62535;SDS011;63050;47.514;18.920;2024-01-07T04:51:19;2.60;;;2.30;;
62535;SDS011;63050;47.514;18.920;2024-01-07T04:56:20;2.80;;;2.50;;
62535;SDS011;63050;47.514;18.920;2024-01-07T05:01:22;2.60;;;2.00;;
62535;SDS011;63050;47.514;18.920;2024-01-07T05:06:24;2.10;;;1.80;;
62535;SDS011;63050;47.514;18.920;2024-01-07T05:11:26;2.90;;;2.20;;
62535;SDS011;63050;47.514;18.920;2024-01-07T05:16:28;2.60;;;2.10;;
62535;SDS011;63050;47.514;18.920;2024-01-07T05:21:29;3.20;;;2.20;;
62535;SDS011;63050;47.514;18.920;2024-01-07T05:26:56;2.70;;;2.10;;
62535;SDS011;63050;47.514;18.920;2024-01-07T05:31:57;3.60;;;2.50;;
62535;SDS011;63050;47.514;18.920;2024-01-07T05:36:58;2.90;;;2.40;;
62535;SDS011;63050;47.514;18.920;2024-01-07T05:42:00;4.70;;;2.30;;
62535;SDS011;63050;47.514;18.920;2024-01-07T05:47:01;3.00;;;2.20;;
62535;SDS011;63050;47.514;18.920;2024-01-07T05:52:03;3.10;;;2.60;;
62535;SDS011;63050;47.514;18.920;2024-01-07T05:57:05;2.90;;;2.30;;
62535;SDS011;63050;47.514;18.920;2024-01-07T06:02:06;2.80;;;1.90;;
62535;SDS011;63050;47.514;18.920;2024-01-07T06:07:08;2.50;;;2.00;;
62535;SDS011;63050;47.514;18.920;2024-01-07T06:12:09;3.10;;;1.90;;
62535;SDS011;63050;47.514;18.920;2024-01-07T06:17:11;2.80;;;2.20;;
62535;SDS011;63050;47.514;18.920;2024-01-07T06:22:13;2.70;;;1.90;;
62535;SDS011;63050;47.514;18.920;2024-01-07T06:27:15;2.50;;;2.10;;
62535;SDS011;63050;47.514;18.920;2024-01-07T06:32:17;3.40;;;2.10;;
62535;SDS011;63050;47.514;18.920;2024-01-07T06:37:18;2.20;;;1.70;;
62535;SDS011;63050;47.514;18.920;2024-01-07T06:42:20;2.70;;;2.20;;
62535;SDS011;63050;47.514;18.920;2024-01-07T06:47:21;2.30;;;1.50;;
62535;SDS011;63050;47.514;18.920;2024-01-07T06:52:24;2.60;;;2.00;;
62535;SDS011;63050;47.514;18.920;2024-01-07T06:57:25;2.40;;;1.40;;
62535;SDS011;63050;47.514;18.920;2024-01-07T07:02:27;3.00;;;1.70;;
62535;SDS011;63050;47.514;18.920;2024-01-07T07:07:28;2.60;;;1.90;;
62535;SDS011;63050;47.514;18.920;2024-01-07T07:12:30;2.30;;;1.40;;
62535;SDS011;63050;47.514;18.920;2024-01-07T07:17:31;2.30;;;1.50;;
62535;SDS011;63050;47.514;18.920;2024-01-07T07:22:32;2.20;;;1.60;;
62535;SDS011;63050;47.514;18.920;2024-01-07T07:27:34;2.00;;;1.40;;
62535;SDS011;63050;47.514;18.920;2024-01-07T07:32:35;1.80;;;1.20;;
62535;SDS011;63050;47.514;18.920;2024-01-07T07:37:37;2.70;;;1.60;;
62535;SDS011;63050;47.514;18.920;2024-01-07T07:42:39;2.10;;;1.40;;
62535;SDS011;63050;47.514;18.920;2024-01-07T07:47:40;2.00;;;1.20;;
62535;SDS011;63050;47.514;18.920;2024-01-07T07:52:46;2.20;;;1.40;;
62535;SDS011;63050;47.514;18.920;2024-01-07T07:57:47;2.80;;;1.30;;
62535;SDS011;63050;47.514;18.920;2024-01-07T08:02:49;2.00;;;1.30;;
62535;SDS011;63050;47.514;18.920;2024-01-07T08:07:50;2.10;;;1.30;;
62535;SDS011;63050;47.514;18.920;2024-01-07T08:12:51;2.40;;;1.20;;
62535;SDS011;63050;47.514;18.920;2024-01-07T08:17:52;1.50;;;1.10;;
62535;SDS011;63050;47.514;18.920;2024-01-07T08:22:54;2.00;;;1.40;;
62535;SDS011;63050;47.514;18.920;2024-01-07T08:27:56;1.70;;;1.30;;
62535;SDS011;63050;47.514;18.920;2024-01-07T08:32:57;1.70;;;1.20;;
62535;SDS011;63050;47.514;18.920;2024-01-07T08:37:59;2.60;;;1.50;;
62535;SDS011;63050;47.514;18.920;2024-01-07T08:43:01;2.30;;;1.70;;
62535;SDS011;63050;47.514;18.920;2024-01-07T08:48:03;2.30;;;1.40;;
62535;SDS011;63050;47.514;18.920;2024-01-07T08:53:05;2.30;;;1.40;;
62535;SDS011;63050;47.514;18.920;2024-01-07T08:58:07;2.80;;;1.90;;
62535;SDS011;63050;47.514;18.920;2024-01-07T09:03:09;2.90;;;1.90;;
62535;SDS011;63050;47.514;18.920;2024-01-07T09:08:10;2.60;;;1.50;;
62535;SDS011;63050;47.514;18.920;2024-01-07T09:13:14;1.10;;;0.90;;
62535;SDS011;63050;47.514;18.920;2024-01-07T09:18:16;2.00;;;1.10;;
62535;SDS011;63050;47.514;18.920;2024-01-07T09:23:18;2.70;;;1.80;;
62535;SDS011;63050;47.514;18.920;2024-01-07T09:28:19;1.90;;;1.50;;
62535;SDS011;63050;47.514;18.920;2024-01-07T09:33:20;2.20;;;1.70;;
62535;SDS011;63050;47.514;18.920;2024-01-07T09:38:24;2.20;;;1.80;;
62535;SDS011;63050;47.514;18.920;2024-01-07T09:43:26;4.10;;;1.90;;
62535;SDS011;63050;47.514;18.920;2024-01-07T09:48:27;2.60;;;1.80;;
62535;SDS011;63050;47.514;18.920;2024-01-07T09:53:30;2.20;;;1.70;;
62535;SDS011;63050;47.514;18.920;2024-01-07T09:58:33;3.00;;;2.50;;
62535;SDS011;63050;47.514;18.920;2024-01-07T10:03:34;4.00;;;2.00;;
62535;SDS011;63050;47.514;18.920;2024-01-07T10:08:36;2.60;;;1.80;;
62535;SDS011;63050;47.514;18.920;2024-01-07T10:13:38;2.40;;;1.60;;
62535;SDS011;63050;47.514;18.920;2024-01-07T10:18:40;2.20;;;1.40;;
62535;SDS011;63050;47.514;18.920;2024-01-07T10:23:42;4.60;;;2.10;;
62535;SDS011;63050;47.514;18.920;2024-01-07T10:28:43;2.00;;;1.60;;
62535;SDS011;63050;47.514;18.920;2024-01-07T10:33:45;2.00;;;1.20;;
62535;SDS011;63050;47.514;18.920;2024-01-07T10:38:46;1.80;;;1.40;;
62535;SDS011;63050;47.514;18.920;2024-01-07T10:43:48;3.50;;;1.50;;
62535;SDS011;63050;47.514;18.920;2024-01-07T10:53:55;2.40;;;1.60;;
62535;SDS011;63050;47.514;18.920;2024-01-07T10:58:57;2.30;;;1.50;;
62535;SDS011;63050;47.514;18.920;2024-01-07T11:04:13;2.50;;;1.70;;
62535;SDS011;63050;47.514;18.920;2024-01-07T11:14:41;2.60;;;1.80;;
62535;SDS011;63050;47.514;18.920;2024-01-07T11:19:52;2.90;;;2.00;;
62535;SDS011;63050;47.514;18.920;2024-01-07T11:24:56;2.40;;;1.60;;
62535;SDS011;63050;47.514;18.920;2024-01-07T11:30:02;3.10;;;2.30;;
62535;SDS011;63050;47.514;18.920;2024-01-07T11:35:09;2.70;;;2.20;;
62535;SDS011;63050;47.514;18.920;2024-01-07T11:40:10;2.50;;;1.80;;
62535;SDS011;63050;47.514;18.920;2024-01-07T11:45:13;2.30;;;1.70;;
62535;SDS011;63050;47.514;18.920;2024-01-07T11:50:17;2.20;;;1.60;;
62535;SDS011;63050;47.514;18.920;2024-01-07T11:55:19;2.70;;;1.80;;
62535;SDS011;63050;47.514;18.920;2024-01-07T12:00:21;2.40;;;1.50;;
62535;SDS011;63050;47.514;18.920;2024-01-07T12:05:22;2.60;;;1.50;;
62535;SDS011;63050;47.514;18.920;2024-01-07T12:10:24;2.60;;;1.50;;
62535;SDS011;63050;47.514;18.920;2024-01-07T12:15:26;2.30;;;1.50;;
62535;SDS011;63050;47.514;18.920;2024-01-07T12:20:27;2.00;;;1.20;;
62535;SDS011;63050;47.514;18.920;2024-01-07T12:25:30;3.20;;;1.80;;
62535;SDS011;63050;47.514;18.920;2024-01-07T12:30:31;2.10;;;1.50;;
62535;SDS011;63050;47.514;18.920;2024-01-07T12:35:32;2.30;;;1.60;;
62535;SDS011;63050;47.514;18.920;2024-01-07T12:40:35;2.50;;;1.60;;
62535;SDS011;63050;47.514;18.920;2024-01-07T12:45:37;2.20;;;1.60;;
62535;SDS011;63050;47.514;18.920;2024-01-07T12:50:38;3.20;;;1.90;;
62535;SDS011;63050;47.514;18.920;2024-01-07T12:55:41;2.70;;;2.20;;
62535;SDS011;63050;47.514;18.920;2024-01-07T13:00:42;3.00;;;2.10;;
62535;SDS011;63050;47.514;18.920;2024-01-07T13:05:44;2.50;;;2.10;;
62535;SDS011;63050;47.514;18.920;2024-01-07T13:10:50;3.40;;;2.40;;
62535;SDS011;63050;47.514;18.920;2024-01-07T13:15:52;3.20;;;2.40;;
62535;SDS011;63050;47.514;18.920;2024-01-07T13:20:53;3.90;;;2.60;;
62535;SDS011;63050;47.514;18.920;2024-01-07T13:25:55;4.70;;;2.40;;
62535;SDS011;63050;47.514;18.920;2024-01-07T13:30:57;4.40;;;2.90;;
62535;SDS011;63050;47.514;18.920;2024-01-07T13:35:58;4.20;;;3.20;;
62535;SDS011;63050;47.514;18.920;2024-01-07T13:40:59;4.80;;;3.60;;
62535;SDS011;63050;47.514;18.920;2024-01-07T13:46:00;3.80;;;2.90;;
62535;SDS011;63050;47.514;18.920;2024-01-07T13:51:03;4.10;;;3.20;;
62535;SDS011;63050;47.514;18.920;2024-01-07T13:56:06;3.80;;;3.40;;
62535;SDS011;63050;47.514;18.920;2024-01-07T14:01:08;4.00;;;3.40;;
62535;SDS011;63050;47.514;18.920;2024-01-07T14:06:09;4.60;;;3.30;;
62535;SDS011;63050;47.514;18.920;2024-01-07T14:11:12;5.40;;;4.00;;
62535;SDS011;63050;47.514;18.920;2024-01-07T14:16:13;6.90;;;4.50;;
62535;SDS011;63050;47.514;18.920;2024-01-07T14:21:15;7.40;;;4.70;;
62535;SDS011;63050;47.514;18.920;2024-01-07T14:26:16;5.90;;;3.90;;
62535;SDS011;63050;47.514;18.920;2024-01-07T14:31:23;5.00;;;4.20;;
62535;SDS011;63050;47.514;18.920;2024-01-07T14:36:25;5.80;;;4.50;;
62535;SDS011;63050;47.514;18.920;2024-01-07T14:41:27;6.40;;;4.40;;
62535;SDS011;63050;47.514;18.920;2024-01-07T14:46:29;6.10;;;4.70;;
62535;SDS011;63050;47.514;18.920;2024-01-07T14:51:31;5.40;;;4.00;;
62535;SDS011;63050;47.514;18.920;2024-01-07T14:56:34;5.70;;;4.30;;
62535;SDS011;63050;47.514;18.920;2024-01-07T15:01:36;5.40;;;4.60;;
62535;SDS011;63050;47.514;18.920;2024-01-07T15:06:41;7.10;;;5.00;;
62535;SDS011;63050;47.514;18.920;2024-01-07T15:11:44;6.60;;;4.00;;
62535;SDS011;63050;47.514;18.920;2024-01-07T15:16:49;6.40;;;4.40;;
62535;SDS011;63050;47.514;18.920;2024-01-07T15:21:54;5.50;;;3.90;;
62535;SDS011;63050;47.514;18.920;2024-01-07T15:26:56;6.70;;;4.40;;
62535;SDS011;63050;47.514;18.920;2024-01-07T15:31:58;5.20;;;4.10;;
62535;SDS011;63050;47.514;18.920;2024-01-07T15:36:59;7.10;;;4.40;;
62535;SDS011;63050;47.514;18.920;2024-01-07T15:42:00;7.10;;;4.60;;
62535;SDS011;63050;47.514;18.920;2024-01-07T15:47:01;5.30;;;3.80;;
62535;SDS011;63050;47.514;18.920;2024-01-07T15:52:04;5.70;;;4.20;;
62535;SDS011;63050;47.514;18.920;2024-01-07T15:57:07;5.10;;;3.90;;
62535;SDS011;63050;47.514;18.920;2024-01-07T16:02:09;5.90;;;4.00;;
62535;SDS011;63050;47.514;18.920;2024-01-07T16:07:10;6.40;;;4.40;;
62535;SDS011;63050;47.514;18.920;2024-01-07T16:12:11;7.60;;;4.20;;
62535;SDS011;63050;47.514;18.920;2024-01-07T16:17:14;6.60;;;4.50;;
62535;SDS011;63050;47.514;18.920;2024-01-07T16:22:16;7.30;;;4.80;;
62535;SDS011;63050;47.514;18.920;2024-01-07T16:27:19;6.30;;;4.20;;
62535;SDS011;63050;47.514;18.920;2024-01-07T16:32:21;5.30;;;4.20;;
62535;SDS011;63050;47.514;18.920;2024-01-07T16:37:22;7.20;;;5.00;;
62535;SDS011;63050;47.514;18.920;2024-01-07T16:42:24;7.40;;;5.20;;
62535;SDS011;63050;47.514;18.920;2024-01-07T16:47:25;7.40;;;4.60;;
62535;SDS011;63050;47.514;18.920;2024-01-07T16:52:26;7.80;;;5.90;;
62535;SDS011;63050;47.514;18.920;2024-01-07T16:57:28;8.00;;;5.30;;
62535;SDS011;63050;47.514;18.920;2024-01-07T17:02:29;8.50;;;5.00;;
62535;SDS011;63050;47.514;18.920;2024-01-07T17:07:31;7.40;;;5.00;;
62535;SDS011;63050;47.514;18.920;2024-01-07T17:12:33;7.40;;;4.60;;
62535;SDS011;63050;47.514;18.920;2024-01-07T17:17:35;8.30;;;5.40;;
62535;SDS011;63050;47.514;18.920;2024-01-07T17:22:36;8.70;;;6.00;;
62535;SDS011;63050;47.514;18.920;2024-01-07T17:27:37;6.70;;;5.40;;
62535;SDS011;63050;47.514;18.920;2024-01-07T17:32:39;6.80;;;5.10;;
62535;SDS011;63050;47.514;18.920;2024-01-07T17:37:40;8.70;;;5.20;;
62535;SDS011;63050;47.514;18.920;2024-01-07T17:42:41;7.40;;;5.50;;
62535;SDS011;63050;47.514;18.920;2024-01-07T17:47:42;7.50;;;5.80;;
62535;SDS011;63050;47.514;18.920;2024-01-07T17:52:44;7.60;;;5.40;;
62535;SDS011;63050;47.514;18.920;2024-01-07T17:57:46;7.20;;;5.10;;
62535;SDS011;63050;47.514;18.920;2024-01-07T18:02:48;7.70;;;5.00;;
62535;SDS011;63050;47.514;18.920;2024-01-07T18:07:49;8.40;;;5.80;;
62535;SDS011;63050;47.514;18.920;2024-01-07T18:12:50;7.40;;;5.10;;
62535;SDS011;63050;47.514;18.920;2024-01-07T18:17:52;7.70;;;5.30;;
62535;SDS011;63050;47.514;18.920;2024-01-07T18:22:53;9.60;;;5.80;;
62535;SDS011;63050;47.514;18.920;2024-01-07T18:27:56;7.20;;;5.10;;
62535;SDS011;63050;47.514;18.920;2024-01-07T18:32:57;6.70;;;4.80;;
62535;SDS011;63050;47.514;18.920;2024-01-07T18:38:00;8.50;;;6.00;;
62535;SDS011;63050;47.514;18.920;2024-01-07T18:43:03;6.80;;;4.70;;
62535;SDS011;63050;47.514;18.920;2024-01-07T18:48:06;7.50;;;5.50;;
62535;SDS011;63050;47.514;18.920;2024-01-07T18:53:07;7.60;;;5.20;;
62535;SDS011;63050;47.514;18.920;2024-01-07T18:58:10;7.60;;;4.40;;
62535;SDS011;63050;47.514;18.920;2024-01-07T19:03:12;7.80;;;4.30;;
62535;SDS011;63050;47.514;18.920;2024-01-07T19:08:16;6.20;;;4.60;;
62535;SDS011;63050;47.514;18.920;2024-01-07T19:13:18;6.80;;;5.00;;
62535;SDS011;63050;47.514;18.920;2024-01-07T19:18:20;8.80;;;5.00;;
62535;SDS011;63050;47.514;18.920;2024-01-07T19:23:21;6.90;;;4.80;;
62535;SDS011;63050;47.514;18.920;2024-01-07T19:28:23;8.00;;;4.50;;
62535;SDS011;63050;47.514;18.920;2024-01-07T19:33:24;9.20;;;4.80;;
62535;SDS011;63050;47.514;18.920;2024-01-07T19:38:27;8.00;;;4.80;;
62535;SDS011;63050;47.514;18.920;2024-01-07T19:43:28;6.80;;;4.80;;
62535;SDS011;63050;47.514;18.920;2024-01-07T19:48:29;6.40;;;4.10;;
62535;SDS011;63050;47.514;18.920;2024-01-07T19:53:32;7.40;;;4.20;;
62535;SDS011;63050;47.514;18.920;2024-01-07T19:58:34;7.50;;;5.20;;
62535;SDS011;63050;47.514;18.920;2024-01-07T20:03:35;7.30;;;4.40;;
62535;SDS011;63050;47.514;18.920;2024-01-07T20:08:41;8.00;;;4.50;;
62535;SDS011;63050;47.514;18.920;2024-01-07T20:13:45;8.00;;;4.60;;
62535;SDS011;63050;47.514;18.920;2024-01-07T20:18:47;6.80;;;5.70;;
62535;SDS011;63050;47.514;18.920;2024-01-07T20:23:51;9.70;;;4.80;;
62535;SDS011;63050;47.514;18.920;2024-01-07T20:28:56;7.60;;;4.20;;
62535;SDS011;63050;47.514;18.920;2024-01-07T20:33:59;7.20;;;4.10;;
62535;SDS011;63050;47.514;18.920;2024-01-07T20:39:03;7.00;;;4.30;;
62535;SDS011;63050;47.514;18.920;2024-01-07T20:44:06;6.40;;;4.50;;
62535;SDS011;63050;47.514;18.920;2024-01-07T20:49:07;7.00;;;4.20;;
62535;SDS011;63050;47.514;18.920;2024-01-07T20:54:11;9.50;;;4.80;;
62535;SDS011;63050;47.514;18.920;2024-01-07T20:59:13;8.40;;;5.20;;
62535;SDS011;63050;47.514;18.920;2024-01-07T21:04:15;6.90;;;4.60;;
62535;SDS011;63050;47.514;18.920;2024-01-07T21:09:19;9.10;;;4.90;;
62535;SDS011;63050;47.514;18.920;2024-01-07T21:14:22;10.30;;;4.80;;
62535;SDS011;63050;47.514;18.920;2024-01-07T21:19:23;7.00;;;5.20;;
62535;SDS011;63050;47.514;18.920;2024-01-07T21:24:24;7.50;;;5.00;;
62535;SDS011;63050;47.514;18.920;2024-01-07T21:29:51;9.70;;;5.40;;
62535;SDS011;63050;47.514;18.920;2024-01-07T21:34:54;9.70;;;5.20;;
62535;SDS011;63050;47.514;18.920;2024-01-07T21:39:55;10.20;;;5.50;;
62535;SDS011;63050;47.514;18.920;2024-01-07T21:44:57;10.10;;;5.70;;
62535;SDS011;63050;47.514;18.920;2024-01-07T21:49:59;9.80;;;6.10;;
62535;SDS011;63050;47.514;18.920;2024-01-07T21:55:00;8.30;;;5.30;;
62535;SDS011;63050;47.514;18.920;2024-01-07T22:00:02;8.20;;;5.90;;
62535;SDS011;63050;47.514;18.920;2024-01-07T22:05:11;9.30;;;6.00;;
62535;SDS011;63050;47.514;18.920;2024-01-07T22:10:13;9.70;;;6.10;;
62535;SDS011;63050;47.514;18.920;2024-01-07T22:15:14;8.20;;;5.30;;
62535;SDS011;63050;47.514;18.920;2024-01-07T22:20:15;9.10;;;6.50;;
62535;SDS011;63050;47.514;18.920;2024-01-07T22:25:18;10.60;;;6.60;;
62535;SDS011;63050;47.514;18.920;2024-01-07T22:30:20;8.60;;;5.80;;
62535;SDS011;63050;47.514;18.920;2024-01-07T22:35:21;10.20;;;6.30;;
62535;SDS011;63050;47.514;18.920;2024-01-07T22:40:22;9.30;;;6.10;;
62535;SDS011;63050;47.514;18.920;2024-01-07T22:45:24;11.30;;;6.20;;
62535;SDS011;63050;47.514;18.920;2024-01-07T22:50:28;9.40;;;6.40;;
62535;SDS011;63050;47.514;18.920;2024-01-07T22:55:32;9.30;;;7.00;;
62535;SDS011;63050;47.514;18.920;2024-01-07T23:00:34;13.70;;;7.80;;
62535;SDS011;63050;47.514;18.920;2024-01-07T23:05:36;10.20;;;7.00;;
62535;SDS011;63050;47.514;18.920;2024-01-07T23:10:37;12.10;;;7.10;;
62535;SDS011;63050;47.514;18.920;2024-01-07T23:15:39;13.00;;;7.00;;
62535;SDS011;63050;47.514;18.920;2024-01-07T23:20:41;10.50;;;6.80;;
62535;SDS011;63050;47.514;18.920;2024-01-07T23:25:42;13.00;;;7.20;;
62535;SDS011;63050;47.514;18.920;2024-01-07T23:30:44;14.80;;;7.10;;
62535;SDS011;63050;47.514;18.920;2024-01-07T23:35:46;14.50;;;8.30;;
62535;SDS011;63050;47.514;18.920;2024-01-07T23:40:47;10.80;;;7.20;;
62535;SDS011;63050;47.514;18.920;2024-01-07T23:45:49;14.60;;;7.50;;
62535;SDS011;63050;47.514;18.920;2024-01-07T23:50:51;12.50;;;7.50;;
62535;SDS011;63050;47.514;18.920;2024-01-07T23:55:54;12.80;;;7.40;;
